Pagrindinis puslapis
METAR-TAF:

METAR-TAF

Oro uostai :

Bordj Badji Mokhtar, Alžyras

platuma: 21-22-30N, ilguma: 000-55-26E, Aukštis: 396 m

Dabartinis oras

Ataskaita buvo paskelbta 9 valandos ir 53 minutes, ne 18:00 UTC
Vėjas 6 kt iš Šiaurės
Temperatūra 28°C
Slėgis 1016 hPa
Matomumas 10 km arba daugiau
nėra debesų žemiau 1500 m ir nėra kamuolinių lietaus debesų

METAR: DATM 271800Z 01006KT CAVOK 28/// Q1016

Laikas: 04:53 (03:53 UTC)

Prognozė

Ataskaita buvo paskelbta 10 valandos ir 53 minutes, ne 17:00 UTC
Prognozė galioja nuo 27 metu 18 UTC su 28 metu 03 UTC
Vėjas 8 kt iš Šiaurės Vakarų
Matomumas: 8000 m

TAF: DATM 271700Z 2718/2803 32008KT 8000 NSC

Orai ataskaitas ir orų prognozės (METAR, TAF).

turimą stotys yra geltonos ir raudonos taškus žemėlapyje.

Perkelti pele per norėdami pamatyti stoties vardą.

Tada spustelėkite, norėdami matyti oro stebėjimo ir prognozės.

Norėdami pakeisti žemėlapį: spustelėkite ant žalios mygtukų su juodo kryžiaus žemyn,; žalią mygtuką su brūkšneliu, jei norite nutolinti; arba žalių rodyklių gretimoms žemėlapius.


METAR-TAF: